Acton Vale, Canada
Current Conditions -  °F | °C
As of 3:16 PM on Sunday 21 Dec 2014 (Local Time) from CYHU Reporting Station
Overcast Overcast  
Wind Chill:   Ceiling: 2100
Heat Index: 16°   Visibility: 7mi
Dew Point: 14°   Wind: 6mph
Humidity: 93%   Direction: 100°E
Pressure: 30.39"   Gusts: NA
Location:  45.63°N, 72.57°W
Report Text: CYHU 212016Z AUTO 10005KT 7SM SCT009 OVC021 M09/M10 A3039 RMK SLP292
Loading
Personal Weather Stations






























Interactive Weather Map New forecast layout! Learn more

10-Day Weather Forecast

Advertisements
Track Severe Weather on mobile